createdAt,value
2017-09-16T00:00:33.252Z,10.60
2017-09-16T00:03:03.907Z,10.60
2017-09-16T00:05:32.396Z,10.60
2017-09-16T00:08:00.570Z,10.50
2017-09-16T00:10:29.871Z,10.50
2017-09-16T00:12:58.366Z,10.40
2017-09-16T00:15:28.272Z,10.50
2017-09-16T00:17:58.108Z,10.40
2017-09-16T00:20:28.204Z,10.30
2017-09-16T00:22:56.485Z,10.30
2017-09-16T00:25:25.805Z,10.30
2017-09-16T00:27:55.395Z,10.20
2017-09-16T00:30:24.954Z,10.30
2017-09-16T00:32:55.336Z,10.30
2017-09-16T00:35:24.479Z,10.30
2017-09-16T00:37:53.776Z,10.20
2017-09-16T00:40:23.243Z,10.20
2017-09-16T00:42:52.130Z,10.20
2017-09-16T00:45:21.241Z,10.20
2017-09-16T00:47:51.651Z,10.20
2017-09-16T00:50:21.916Z,10.10
2017-09-16T00:52:54.861Z,10.20
2017-09-16T00:55:23.762Z,10.10
2017-09-16T00:57:52.477Z,10.10
2017-09-16T01:00:21.947Z,10.10
2017-09-16T01:02:53.410Z,10.00
2017-09-16T01:05:24.307Z,10.00
2017-09-16T01:07:54.554Z,10.00
2017-09-16T01:10:23.671Z,9.90
2017-09-16T01:12:54.628Z,10.00
2017-09-16T01:15:26.160Z,10.00
2017-09-16T01:17:57.665Z,9.90
2017-09-16T01:20:27.426Z,9.90
2017-09-16T01:22:56.881Z,10.00
2017-09-16T01:25:26.185Z,10.00
2017-09-16T01:27:54.660Z,9.90
2017-09-16T01:30:23.660Z,9.90
2017-09-16T01:32:53.638Z,9.80
2017-09-16T01:35:22.409Z,9.80
2017-09-16T01:37:51.891Z,9.90
2017-09-16T01:40:22.200Z,9.80
2017-09-16T01:42:51.896Z,9.80
2017-09-16T01:45:20.254Z,9.90
2017-09-16T01:47:48.472Z,9.90
2017-09-16T01:50:16.649Z,9.80
2017-09-16T01:52:44.908Z,9.70
2017-09-16T01:55:13.133Z,9.80
2017-09-16T01:57:41.383Z,9.70
2017-09-16T02:00:09.612Z,9.70
2017-09-16T02:02:37.897Z,9.80
2017-09-16T02:05:06.155Z,9.70
2017-09-16T02:07:34.747Z,9.70
2017-09-16T02:10:03.029Z,9.70
2017-09-16T02:12:31.410Z,9.70
2017-09-16T02:14:59.695Z,9.70
2017-09-16T02:17:30.697Z,9.70
2017-09-16T02:20:00.247Z,9.60
2017-09-16T02:22:28.826Z,9.50
2017-09-16T02:24:57.290Z,9.60
2017-09-16T02:27:25.577Z,9.60
2017-09-16T02:29:54.231Z,9.50
2017-09-16T02:32:22.531Z,9.50
2017-09-16T02:34:50.986Z,9.50
2017-09-16T02:37:19.604Z,9.40
2017-09-16T02:39:48.315Z,9.50
2017-09-16T02:42:16.976Z,9.40
2017-09-16T02:44:45.519Z,9.30
2017-09-16T02:47:15.203Z,9.30
2017-09-16T02:49:57.358Z,9.20
2017-09-16T02:52:26.367Z,9.20
2017-09-16T02:54:57.085Z,9.20
2017-09-16T02:57:26.360Z,9.30
2017-09-16T02:59:54.662Z,9.20
2017-09-16T03:02:23.017Z,9.20
2017-09-16T03:04:52.510Z,9.20
2017-09-16T03:07:22.671Z,9.20
2017-09-16T03:09:51.670Z,9.20
2017-09-16T03:12:21.878Z,9.20
2017-09-16T03:14:53.031Z,9.20
2017-09-16T03:17:22.345Z,9.20
2017-09-16T03:19:50.630Z,9.20
2017-09-16T03:22:18.885Z,9.30
2017-09-16T03:24:47.182Z,9.20
2017-09-16T03:27:15.554Z,9.20
2017-09-16T03:29:43.721Z,9.20
2017-09-16T03:32:13.223Z,9.20
2017-09-16T03:34:41.484Z,9.20
2017-09-16T03:37:09.772Z,9.20
2017-09-16T03:39:38.036Z,9.20
2017-09-16T03:42:06.453Z,9.20
2017-09-16T03:44:34.665Z,9.20
2017-09-16T03:47:02.996Z,9.20
2017-09-16T03:49:31.207Z,9.20
2017-09-16T03:51:59.460Z,9.10
2017-09-16T03:54:29.229Z,9.20
2017-09-16T03:56:57.487Z,9.20
2017-09-16T03:59:25.897Z,9.10
2017-09-16T04:02:06.037Z,9.20
2017-09-16T04:04:34.437Z,9.10
2017-09-16T04:07:05.324Z,9.10
2017-09-16T04:09:35.634Z,9.10
2017-09-16T04:12:05.638Z,9.10
2017-09-16T04:14:37.902Z,9.10
2017-09-16T04:17:07.038Z,9.00
2017-09-16T04:19:35.279Z,9.00
2017-09-16T04:22:03.537Z,9.00
2017-09-16T04:24:37.112Z,9.10
2017-09-16T04:27:05.525Z,9.00
2017-09-16T04:29:35.587Z,9.00
2017-09-16T04:32:04.989Z,9.00
2017-09-16T04:34:33.617Z,9.00
2017-09-16T04:37:01.927Z,9.00
2017-09-16T04:39:30.671Z,9.00
2017-09-16T04:41:59.891Z,8.90
2017-09-16T04:44:28.416Z,8.80
2017-09-16T04:46:56.760Z,8.90
2017-09-16T04:49:25.081Z,8.80
2017-09-16T04:51:53.437Z,8.80
2017-09-16T04:54:22.125Z,8.90
2017-09-16T04:56:51.139Z,8.90
2017-09-16T04:59:19.710Z,8.80
2017-09-16T05:01:47.979Z,8.90
2017-09-16T05:04:16.268Z,9.00
2017-09-16T05:06:45.002Z,8.90
2017-09-16T05:09:14.643Z,8.90
2017-09-16T05:11:43.276Z,8.90
2017-09-16T05:14:11.529Z,8.90
2017-09-16T05:16:40.232Z,9.00
2017-09-16T05:19:09.146Z,9.00
2017-09-16T05:21:37.615Z,9.00
2017-09-16T05:24:05.747Z,9.00
2017-09-16T05:26:34.034Z,9.10
2017-09-16T05:29:02.999Z,9.00
2017-09-16T05:31:31.574Z,9.00
2017-09-16T05:33:59.877Z,9.00
2017-09-16T05:36:28.425Z,9.00
2017-09-16T05:38:56.712Z,9.10
2017-09-16T05:41:25.784Z,9.10
2017-09-16T05:43:53.965Z,9.00
2017-09-16T05:46:22.166Z,9.20
2017-09-16T05:48:51.119Z,9.20
2017-09-16T05:51:19.961Z,9.20
2017-09-16T05:53:48.463Z,9.30
2017-09-16T05:56:18.401Z,9.40
2017-09-16T05:58:48.605Z,9.50
2017-09-16T06:01:16.966Z,9.50
2017-09-16T06:03:45.327Z,9.50
2017-09-16T06:06:13.539Z,9.60
2017-09-16T06:08:41.783Z,9.70
2017-09-16T06:11:10.183Z,9.80
2017-09-16T06:13:38.461Z,9.90
2017-09-16T06:16:06.706Z,10.00
2017-09-16T06:18:34.967Z,10.20
2017-09-16T06:21:03.110Z,10.30
2017-09-16T06:23:31.343Z,10.60
2017-09-16T06:25:59.718Z,10.70
2017-09-16T06:28:28.932Z,10.80
2017-09-16T06:30:57.347Z,10.70
2017-09-16T06:33:25.641Z,10.90
2017-09-16T06:35:55.067Z,10.90
2017-09-16T06:38:23.561Z,10.70
2017-09-16T06:40:54.967Z,10.70
2017-09-16T06:43:23.401Z,10.70
2017-09-16T06:45:57.139Z,10.80
2017-09-16T06:48:28.689Z,10.80
2017-09-16T06:51:02.295Z,10.70
2017-09-16T06:53:34.211Z,10.80
2017-09-16T06:56:06.735Z,11.00
2017-09-16T06:58:41.359Z,10.90
2017-09-16T07:01:11.435Z,11.00
2017-09-16T07:03:47.049Z,10.90
2017-09-16T07:06:18.889Z,10.70
2017-09-16T07:08:53.956Z,10.50
2017-09-16T07:11:26.620Z,10.50
2017-09-16T07:13:55.521Z,10.40
2017-09-16T07:16:26.657Z,10.50
2017-09-16T07:19:02.401Z,10.60
2017-09-16T07:21:31.820Z,10.80
2017-09-16T07:24:00.985Z,10.80
2017-09-16T07:26:33.204Z,10.80
2017-09-16T07:29:03.189Z,10.70
2017-09-16T07:31:32.317Z,10.60
2017-09-16T07:34:01.177Z,10.70
2017-09-16T07:36:32.423Z,10.80
2017-09-16T07:39:01.411Z,11.10
2017-09-16T07:41:31.736Z,11.60
2017-09-16T07:44:03.208Z,12.10
2017-09-16T07:46:33.790Z,12.00
2017-09-16T07:49:02.265Z,12.40
2017-09-16T07:51:30.803Z,12.60
2017-09-16T07:53:59.087Z,12.80
2017-09-16T07:56:32.812Z,13.10
2017-09-16T07:59:01.219Z,13.00
2017-09-16T08:01:31.777Z,13.10
2017-09-16T08:04:00.304Z,12.90
2017-09-16T08:06:29.366Z,12.80
2017-09-16T08:08:58.444Z,12.60
2017-09-16T08:11:26.970Z,12.60
2017-09-16T08:13:55.879Z,12.50
2017-09-16T08:16:24.086Z,12.50
2017-09-16T08:18:52.977Z,13.10
2017-09-16T08:21:21.128Z,13.10
2017-09-16T08:23:49.282Z,13.50
2017-09-16T08:26:18.281Z,13.80
2017-09-16T08:28:47.104Z,14.20
2017-09-16T08:31:15.969Z,14.60
2017-09-16T08:33:45.607Z,15.50
2017-09-16T08:36:14.345Z,15.50
2017-09-16T08:38:42.710Z,15.90
2017-09-16T08:41:10.951Z,16.10
2017-09-16T08:43:39.336Z,16.10
2017-09-16T08:46:08.869Z,16.20
2017-09-16T08:48:37.586Z,16.40
2017-09-16T08:51:07.510Z,17.00
2017-09-16T08:53:36.268Z,17.30
2017-09-16T08:56:06.592Z,17.00
2017-09-16T08:58:45.316Z,17.30
2017-09-16T09:01:13.859Z,17.20
2017-09-16T09:03:42.455Z,17.00
2017-09-16T09:06:11.207Z,16.80
2017-09-16T09:08:41.016Z,17.30
2017-09-16T09:11:09.328Z,17.20
2017-09-16T09:13:38.432Z,17.40
2017-09-16T09:16:14.762Z,17.80
2017-09-16T09:18:46.209Z,17.80
2017-09-16T09:21:14.821Z,17.80
2017-09-16T09:23:44.839Z,18.50
2017-09-16T09:26:13.759Z,19.10
2017-09-16T09:28:43.852Z,19.00
2017-09-16T09:31:18.137Z,19.30
2017-09-16T09:33:47.762Z,19.50
2017-09-16T09:36:22.745Z,19.20
2017-09-16T09:38:52.300Z,19.20
2017-09-16T09:41:22.284Z,19.10
2017-09-16T09:43:53.906Z,19.50
2017-09-16T09:46:22.623Z,19.40
2017-09-16T09:48:52.447Z,20.10
2017-09-16T09:51:23.867Z,20.00
2017-09-16T09:53:53.196Z,19.90
2017-09-16T09:56:21.958Z,19.80
2017-09-16T09:58:53.459Z,20.40
2017-09-16T10:04:30.232Z,20.80
2017-09-16T10:06:58.853Z,20.80
2017-09-16T10:09:27.691Z,20.60
2017-09-16T10:14:39.257Z,20.10
2017-09-16T10:17:08.519Z,19.80
2017-09-16T10:19:38.329Z,20.00
2017-09-16T10:22:06.551Z,19.90
2017-09-16T10:24:35.494Z,20.30
2017-09-16T10:27:04.279Z,20.30
2017-09-16T10:29:33.299Z,19.80
2017-09-16T10:32:01.632Z,19.70
2017-09-16T10:34:30.088Z,19.00
2017-09-16T10:36:58.261Z,18.20
2017-09-16T10:39:26.664Z,18.40
2017-09-16T10:41:55.961Z,19.30
2017-09-16T10:44:24.342Z,19.30
2017-09-16T10:46:53.521Z,20.10
2017-09-16T10:49:22.768Z,20.40
2017-09-16T10:51:51.047Z,20.30
2017-09-16T10:54:20.071Z,20.40
2017-09-16T10:56:49.033Z,20.40
2017-09-16T10:59:17.370Z,20.30
2017-09-16T11:01:46.366Z,20.40
2017-09-16T11:04:14.688Z,20.40
2017-09-16T11:06:43.153Z,20.60
2017-09-16T11:09:12.008Z,20.80
2017-09-16T11:11:40.362Z,20.40
2017-09-16T11:14:08.547Z,20.10
2017-09-16T11:16:37.295Z,20.50
2017-09-16T11:19:05.602Z,20.60
2017-09-16T11:21:34.468Z,20.10
2017-09-16T11:24:02.944Z,19.80
2017-09-16T11:26:31.283Z,20.40
2017-09-16T11:28:59.701Z,20.40
2017-09-16T11:31:27.897Z,20.50
2017-09-16T11:33:56.093Z,20.60
2017-09-16T11:36:25.680Z,20.80
2017-09-16T11:38:54.131Z,20.70
2017-09-16T11:41:22.394Z,20.90
2017-09-16T11:43:54.773Z,21.40
2017-09-16T11:46:29.418Z,21.50
2017-09-16T11:48:57.793Z,21.30
2017-09-16T11:51:26.066Z,21.20
2017-09-16T11:53:54.476Z,21.00
2017-09-16T11:56:23.780Z,20.80
2017-09-16T11:58:52.124Z,20.70
2017-09-16T12:01:20.384Z,20.30
2017-09-16T12:03:48.795Z,20.00
2017-09-16T12:06:18.204Z,19.60
2017-09-16T12:08:47.274Z,19.10
2017-09-16T12:11:15.550Z,19.10
2017-09-16T12:13:44.026Z,19.30
2017-09-16T12:16:12.280Z,19.50
2017-09-16T12:18:40.540Z,19.90
2017-09-16T12:21:08.908Z,20.10
2017-09-16T12:23:37.083Z,19.50
2017-09-16T12:26:05.257Z,19.20
2017-09-16T12:28:34.285Z,19.70
2017-09-16T12:31:02.528Z,19.70
2017-09-16T12:33:30.702Z,20.20
2017-09-16T12:35:59.695Z,20.20
2017-09-16T12:38:28.790Z,19.70
2017-09-16T12:40:56.936Z,19.60
2017-09-16T12:43:25.104Z,19.60
2017-09-16T12:45:53.354Z,20.00
2017-09-16T12:48:21.529Z,20.40
2017-09-16T12:50:49.704Z,20.30
2017-09-16T12:53:17.896Z,20.00
2017-09-16T12:55:46.156Z,19.80
2017-09-16T12:58:14.360Z,19.60
2017-09-16T13:00:42.610Z,19.20
2017-09-16T13:03:11.659Z,18.90
2017-09-16T13:05:39.880Z,18.80
2017-09-16T13:08:08.845Z,19.30
2017-09-16T13:10:36.997Z,19.20
2017-09-16T13:13:05.190Z,19.40
2017-09-16T13:15:33.421Z,19.50
2017-09-16T13:18:01.605Z,20.00
2017-09-16T13:20:29.830Z,19.80
2017-09-16T13:22:57.915Z,19.30
2017-09-16T13:25:26.027Z,19.20
2017-09-16T13:27:54.182Z,19.40
2017-09-16T13:30:22.333Z,19.30
2017-09-16T13:32:50.533Z,18.80
2017-09-16T13:35:18.632Z,18.80
2017-09-16T13:37:46.761Z,18.70
2017-09-16T13:40:14.871Z,18.30
2017-09-16T13:42:42.983Z,18.10
2017-09-16T13:45:11.103Z,18.40
2017-09-16T13:47:39.992Z,18.70
2017-09-16T13:50:08.121Z,18.70
2017-09-16T13:52:36.270Z,19.10
2017-09-16T13:55:06.316Z,19.50
2017-09-16T13:57:34.440Z,19.40
2017-09-16T14:00:02.635Z,19.70
2017-09-16T14:02:30.730Z,19.60
2017-09-16T14:04:58.875Z,19.40
2017-09-16T14:07:27.738Z,19.90
2017-09-16T14:09:55.864Z,19.90
2017-09-16T14:12:24.743Z,20.20
2017-09-16T14:14:52.842Z,20.10
2017-09-16T14:17:20.937Z,20.30
2017-09-16T14:19:49.073Z,20.20
2017-09-16T14:22:17.185Z,20.10
2017-09-16T14:24:45.265Z,19.60
2017-09-16T14:27:13.401Z,19.30
2017-09-16T14:29:42.297Z,18.70
2017-09-16T14:32:10.441Z,18.70
2017-09-16T14:34:39.349Z,18.70
2017-09-16T14:37:07.473Z,18.70
2017-09-16T14:39:35.618Z,18.90
2017-09-16T14:42:03.819Z,19.20
2017-09-16T14:44:31.987Z,19.00
2017-09-16T14:47:00.904Z,18.20
2017-09-16T14:49:29.036Z,18.20
2017-09-16T14:51:57.153Z,18.10
2017-09-16T14:54:26.065Z,18.00
2017-09-16T14:56:54.210Z,17.90
2017-09-16T14:59:22.330Z,17.80
2017-09-16T15:01:50.491Z,17.90
2017-09-16T15:04:18.603Z,17.80
2017-09-16T15:06:46.722Z,17.80
2017-09-16T15:09:14.847Z,17.70
2017-09-16T15:11:42.966Z,17.60
2017-09-16T15:14:11.100Z,17.50
2017-09-16T15:16:39.193Z,17.60
2017-09-16T15:19:07.316Z,17.40
2017-09-16T15:21:35.442Z,17.40
2017-09-16T15:24:03.595Z,17.40
2017-09-16T15:26:31.697Z,17.40
2017-09-16T15:28:59.899Z,17.40
2017-09-16T15:31:28.134Z,17.40
2017-09-16T15:33:56.259Z,17.30
2017-09-16T15:36:24.358Z,17.30
2017-09-16T15:38:52.446Z,17.10
2017-09-16T15:41:21.330Z,17.00
2017-09-16T15:43:49.538Z,17.00
2017-09-16T15:48:44.183Z,17.10
2017-09-16T15:51:13.062Z,17.00
2017-09-16T15:53:41.923Z,17.00
2017-09-16T15:56:10.209Z,17.00
2017-09-16T15:58:39.077Z,17.10
2017-09-16T16:01:07.976Z,17.00
2017-09-16T16:03:36.112Z,17.00
2017-09-16T16:06:04.181Z,17.10
2017-09-16T16:08:32.288Z,17.10
2017-09-16T16:11:00.384Z,17.30
2017-09-16T16:13:28.524Z,17.30
2017-09-16T16:15:56.627Z,17.30
2017-09-16T16:18:24.865Z,17.30
2017-09-16T16:20:53.927Z,17.30
2017-09-16T16:23:22.062Z,17.10
2017-09-16T16:25:50.209Z,17.00
2017-09-16T16:28:18.306Z,16.90
2017-09-16T16:30:46.409Z,16.80
2017-09-16T16:33:14.531Z,16.80
2017-09-16T16:35:43.393Z,16.70
2017-09-16T16:38:11.496Z,16.60
2017-09-16T16:40:39.615Z,16.50
2017-09-16T16:43:07.707Z,16.40
2017-09-16T16:45:35.835Z,16.40
2017-09-16T16:48:03.929Z,16.40
2017-09-16T16:50:32.817Z,16.30
2017-09-16T16:53:00.933Z,16.30
2017-09-16T16:55:29.806Z,16.40
2017-09-16T16:57:57.895Z,16.40
2017-09-16T17:00:26.062Z,16.30
2017-09-16T17:02:54.949Z,16.30
2017-09-16T17:05:23.077Z,16.20
2017-09-16T17:07:51.203Z,16.10
2017-09-16T17:10:19.346Z,16.20
2017-09-16T17:12:47.563Z,16.10
2017-09-16T17:15:15.740Z,16.10
2017-09-16T17:17:43.865Z,16.10
2017-09-16T17:20:12.049Z,16.00
2017-09-16T17:22:40.266Z,15.90
2017-09-16T17:25:09.164Z,15.90
2017-09-16T17:27:37.326Z,15.80
2017-09-16T17:30:06.354Z,15.80
2017-09-16T17:32:35.306Z,15.80
2017-09-16T17:35:03.466Z,15.70
2017-09-16T17:37:31.618Z,15.80
2017-09-16T17:39:59.778Z,15.80
2017-09-16T17:42:28.802Z,15.80
2017-09-16T17:44:56.993Z,15.80
2017-09-16T17:47:25.161Z,15.70
2017-09-16T17:49:53.397Z,15.70
2017-09-16T17:52:21.587Z,15.70
2017-09-16T17:54:49.775Z,15.50
2017-09-16T17:57:18.772Z,15.20
2017-09-16T17:59:47.702Z,15.20
2017-09-16T18:02:16.587Z,15.30
2017-09-16T18:04:44.696Z,15.20
2017-09-16T18:07:13.036Z,15.20
2017-09-16T18:09:41.195Z,15.20
2017-09-16T18:12:09.325Z,15.30
2017-09-16T18:14:37.446Z,15.30
2017-09-16T18:17:05.583Z,15.30
2017-09-16T18:19:34.508Z,15.20
2017-09-16T18:22:02.686Z,15.20
2017-09-16T18:24:30.996Z,15.20
2017-09-16T18:26:59.266Z,15.20
2017-09-16T18:29:27.485Z,15.10
2017-09-16T18:31:55.714Z,15.20
2017-09-16T18:34:23.911Z,15.10
2017-09-16T18:36:52.956Z,15.00
2017-09-16T18:39:21.879Z,15.10
2017-09-16T18:41:50.056Z,15.10
2017-09-16T18:44:18.889Z,15.40
2017-09-16T18:46:47.132Z,15.70
2017-09-16T18:49:15.363Z,15.40
2017-09-16T18:51:43.751Z,15.60
2017-09-16T18:54:12.899Z,15.20
2017-09-16T18:56:41.227Z,15.10
2017-09-16T18:59:10.238Z,15.40
2017-09-16T19:01:39.162Z,15.30
2017-09-16T19:04:08.167Z,15.20
2017-09-16T19:06:36.502Z,15.10
2017-09-16T19:09:04.684Z,15.00
2017-09-16T19:11:33.630Z,14.90
2017-09-16T19:14:01.796Z,14.90
2017-09-16T19:16:30.101Z,14.80
2017-09-16T19:18:58.385Z,14.80
2017-09-16T19:21:26.526Z,14.80
2017-09-16T19:23:54.720Z,14.90
2017-09-16T19:26:22.879Z,14.80
2017-09-16T19:28:51.017Z,14.70
2017-09-16T19:31:19.261Z,14.80
2017-09-16T19:33:48.221Z,14.50
2017-09-16T19:36:16.469Z,14.50
2017-09-16T19:38:44.601Z,14.50
2017-09-16T19:41:13.946Z,14.30
2017-09-16T19:43:42.183Z,14.30
2017-09-16T19:46:10.390Z,14.30
2017-09-16T19:48:39.393Z,14.20
2017-09-16T19:51:08.354Z,14.30
2017-09-16T19:53:36.617Z,14.20
2017-09-16T19:56:04.800Z,14.40
2017-09-16T19:58:32.949Z,14.50
2017-09-16T20:01:02.056Z,14.50
2017-09-16T20:03:31.001Z,14.60
2017-09-16T20:05:59.119Z,14.60
2017-09-16T20:08:27.309Z,14.60
2017-09-16T20:10:56.216Z,14.60
2017-09-16T20:13:24.402Z,14.50
2017-09-16T20:15:52.568Z,14.60
2017-09-16T20:18:20.741Z,14.50
2017-09-16T20:20:48.937Z,14.40
2017-09-16T20:23:17.133Z,14.30
2017-09-16T20:25:45.398Z,14.20
2017-09-16T20:28:14.350Z,14.30
2017-09-16T20:30:43.460Z,14.30
2017-09-16T20:33:11.589Z,14.20
2017-09-16T20:35:39.836Z,14.30
2017-09-16T20:38:08.757Z,14.30
2017-09-16T20:40:36.875Z,14.30
2017-09-16T20:43:05.468Z,14.20
2017-09-16T20:45:33.574Z,14.20
2017-09-16T20:48:01.824Z,14.20
2017-09-16T20:50:30.695Z,14.30
2017-09-16T20:52:58.877Z,14.30
2017-09-16T20:55:27.793Z,14.20
2017-09-16T20:57:56.074Z,14.20
2017-09-16T21:00:24.212Z,14.20
2017-09-16T21:02:52.649Z,14.10
2017-09-16T21:05:20.821Z,14.00
2017-09-16T21:07:48.981Z,14.00
2017-09-16T21:10:17.244Z,14.10
2017-09-16T21:12:45.420Z,14.10
2017-09-16T21:15:13.592Z,14.00
2017-09-16T21:17:41.786Z,13.90
2017-09-16T21:20:10.044Z,13.80
2017-09-16T21:22:38.242Z,13.70
2017-09-16T21:25:06.504Z,13.70
2017-09-16T21:27:35.602Z,13.50
2017-09-16T21:30:03.872Z,13.50
2017-09-16T21:32:32.067Z,13.50
2017-09-16T21:35:01.144Z,13.40
2017-09-16T21:37:29.339Z,13.30
2017-09-16T21:39:57.462Z,13.30
2017-09-16T21:42:25.614Z,13.30
2017-09-16T21:44:53.759Z,13.30
2017-09-16T21:47:22.706Z,13.30
2017-09-16T21:49:50.870Z,13.20
2017-09-16T21:52:19.749Z,13.00
2017-09-16T21:54:47.991Z,13.00
2017-09-16T21:57:16.190Z,13.00
2017-09-16T21:59:44.707Z,13.00
2017-09-16T22:02:13.671Z,12.80
2017-09-16T22:04:42.000Z,12.70
2017-09-16T22:07:10.176Z,12.70
2017-09-16T22:09:39.095Z,12.60
2017-09-16T22:12:07.277Z,12.50
2017-09-16T22:14:36.196Z,12.50
2017-09-16T22:17:04.329Z,12.50
2017-09-16T22:19:32.472Z,12.40
2017-09-16T22:22:00.596Z,12.40
2017-09-16T22:24:28.731Z,12.30
2017-09-16T22:26:56.910Z,12.30
2017-09-16T22:29:25.829Z,12.20
2017-09-16T22:31:53.986Z,12.10
2017-09-16T22:34:22.808Z,12.10
2017-09-16T22:36:51.024Z,12.10
2017-09-16T22:39:19.946Z,12.00
2017-09-16T22:41:48.152Z,12.00
2017-09-16T22:44:16.376Z,12.00
2017-09-16T22:46:44.643Z,12.00
2017-09-16T22:49:13.107Z,11.90
2017-09-16T22:51:42.076Z,11.90
2017-09-16T22:54:10.737Z,11.90
2017-09-16T22:56:40.083Z,11.80
2017-09-16T22:59:09.764Z,11.70
2017-09-16T23:01:39.100Z,11.80
2017-09-16T23:04:07.421Z,11.70
2017-09-16T23:06:35.886Z,11.70
2017-09-16T23:09:04.412Z,11.80
2017-09-16T23:11:32.818Z,11.70
2017-09-16T23:14:01.197Z,11.70
2017-09-16T23:16:29.792Z,11.80
2017-09-16T23:18:58.828Z,11.80
2017-09-16T23:21:28.698Z,11.70
2017-09-16T23:23:57.073Z,11.70
2017-09-16T23:26:25.483Z,11.70
2017-09-16T23:28:53.892Z,11.70
2017-09-16T23:31:22.310Z,11.70
2017-09-16T23:33:50.725Z,11.70
2017-09-16T23:36:20.300Z,11.70
2017-09-16T23:38:49.667Z,11.70
2017-09-16T23:41:17.937Z,11.70
2017-09-16T23:43:49.128Z,11.80
2017-09-16T23:46:19.162Z,11.80
2017-09-16T23:48:48.524Z,11.80
2017-09-16T23:51:17.630Z,11.70
2017-09-16T23:53:46.151Z,11.60
2017-09-16T23:56:14.415Z,11.60
2017-09-16T23:58:42.894Z,11.60
